Remember When — ZCXN6 — position and weather

sailwx.info

Track history (hours):
 
Tides and Currents Weather Stations Pressure Air Temp Water Temp Dewpoint Dewpoint Depression Visibility Wind Speed Wind Dir Waves Ship Positions

Remember When

Last reported at 2014-Sep-11 18:11 UTC. Time now 2014-Sep-17 07:33 UTC.
Position N 40°43' W 074°03'.

Length 50 m; draft 2.4 m.

Type: Pleasure craft. MMSI: 319582000.

Date/timePositionNaut miles runAvg speedWind from/ knotsBaromVisibWave heightAir tempDewpointWater temp
2014-Sep-11 18:11N 40°43' W 074°03'0 0.0
2014-Sep-11 17:29N 40°43' W 074°03'0 0.0
2014-Sep-11 16:32N 40°43' W 074°03'0 0.0
2014-Sep-11 14:20N 40°43' W 074°03'0 0.0
2014-Sep-11 13:29N 40°43' W 074°03'0 0.0
2014-Sep-11 12:32N 40°43' W 074°03'0 0.0
2014-Sep-11 11:32N 40°43' W 074°03'0 0.0
2014-Sep-11 10:32N 40°43' W 074°03'0 0.0
2014-Sep-11 08:14N 40°43' W 074°03'0 0.0
2014-Sep-11 07:32N 40°43' W 074°03'0 0.0
2014-Sep-11 06:32N 40°43' W 074°03'0 0.0
2014-Sep-11 05:23N 40°43' W 074°03'0 0.0
2014-Sep-11 04:29N 40°43' W 074°03'0 0.0
2014-Sep-11 03:29N 40°43' W 074°03'0 0.0
2014-Sep-11 02:32N 40°43' W 074°03'0 0.0
2014-Sep-11 01:26N 40°43' W 074°03'0 0.0
2014-Sep-11 00:23N 40°43' W 074°03'0 0.0
2014-Sep-10 23:29N 40°43' W 074°03'0 0.0
2014-Sep-10 22:23N 40°43' W 074°03'0 0.0
2014-Sep-10 21:32N 40°43' W 074°03'0 0.0
2014-Sep-10 20:26N 40°43' W 074°03'0 0.0
2014-Sep-10 19:32N 40°43' W 074°03'0 0.0
2014-Sep-10 18:26N 40°43' W 074°03'0 0.0
2014-Sep-10 17:32N 40°43' W 074°03'0 0.0
2014-Sep-10 16:26N 40°43' W 074°03'0 0.0
2014-Sep-10 15:29N 40°43' W 074°03'0 0.0
2014-Sep-10 14:32N 40°43' W 074°03'0 0.0
2014-Sep-10 13:32N 40°43' W 074°03'0 0.0
2014-Sep-10 12:29N 40°43' W 074°03'0 0.0
2014-Sep-10 11:11N 40°43' W 074°03'0 0.0
2014-Sep-10 10:20N 40°43' W 074°03'0 0.0
2014-Sep-10 09:29N 40°43' W 074°03'0 0.0
2014-Sep-10 08:23N 40°43' W 074°03'0 0.0
2014-Sep-10 07:29N 40°43' W 074°03'0 0.0
2014-Sep-10 05:32N 40°43' W 074°03'0 0.0
2014-Sep-09 23:26N 40°43' W 074°03'0 0.0
2014-Sep-09 22:32N 40°43' W 074°03'0 0.0
2014-Sep-09 21:26N 40°43' W 074°03'0 0.0
2014-Sep-09 20:26N 40°43' W 074°03'0 0.0
2014-Sep-09 19:32N 40°43' W 074°03'0 0.0
2014-Sep-09 18:26N 40°43' W 074°03'0 0.0
2014-Sep-09 17:26N 40°43' W 074°03'0 0.0
2014-Sep-09 16:26N 40°43' W 074°03'0 0.0
2014-Sep-09 15:32N 40°43' W 074°03'0 0.0
2014-Sep-09 14:32N 40°43' W 074°03'0 0.0
2014-Sep-09 13:32N 40°43' W 074°03'0 0.0
2014-Sep-09 12:26N 40°43' W 074°03'0 0.0
2014-Sep-09 11:14N 40°43' W 074°03'0 0.0
2014-Sep-09 10:20N 40°43' W 074°03'0 0.0
2014-Sep-09 09:32N 40°43' W 074°03'0 0.0
2014-Sep-09 07:08N 40°43' W 074°03'0 0.0
2014-Sep-09 04:32N 40°43' W 074°03'0 0.0
2014-Sep-08 23:14N 40°43' W 074°03'0 0.0
2014-Sep-08 22:08N 40°43' W 074°03'0 0.0
2014-Sep-08 18:32N 40°43' W 074°03'0 0.0
2014-Sep-08 16:32N 40°43' W 074°03'0 0.0
2014-Sep-08 15:17N 40°43' W 074°03'0 0.0
2014-Sep-08 14:32N 40°43' W 074°03'0 0.0
2014-Sep-08 13:32N 40°43' W 074°03'3 3.4
2014-Sep-08 12:33N 40°43' W 073°58'8 7.7
2014-Sep-08 11:33N 40°48' W 073°50'9 8.4
2014-Sep-08 10:29N 40°54' W 073°41'10 9.9
2014-Sep-08 09:31N 40°58' W 073°30'9 9.6
2014-Sep-08 08:33N 41°00' W 073°18'10 9.5
2014-Sep-08 07:33N 41°02' W 073°05'9 9.2
2014-Sep-08 06:33N 41°04' W 072°54'9 9.2
2014-Sep-08 05:33N 41°06' W 072°42'9 8.7
2014-Sep-08 04:33N 41°09' W 072°31'9 8.8
2014-Sep-08 03:33N 41°11' W 072°19'9 9.0
2014-Sep-08 02:33N 41°13' W 072°08'1110.5
2014-Sep-08 01:33N 41°16' W 071°54'1111.0
2014-Sep-08 00:33N 41°18' W 071°40'1010.2
2014-Sep-07 23:33N 41°22' W 071°27'9 9.1
2014-Sep-07 22:34N 41°29' W 071°20'0 0.3
2014-Sep-07 21:29N 41°29' W 071°19'0 0.0
2014-Sep-07 20:28N 41°29' W 071°19'0 0.0
2014-Sep-07 19:31N 41°29' W 071°19'0 0.0
2014-Sep-07 18:31N 41°29' W 071°19'0 0.0
2014-Sep-07 17:31N 41°29' W 071°19'0 0.0
2014-Sep-07 16:31N 41°29' W 071°19'0 0.0
2014-Sep-07 15:31N 41°29' W 071°19'0 0.0
2014-Sep-07 14:31N 41°29' W 071°19'0 0.0
2014-Sep-07 13:31N 41°29' W 071°19'0 0.0
2014-Sep-07 12:31N 41°29' W 071°19'0 0.0
2014-Sep-07 11:31N 41°29' W 071°19'0 0.0
2014-Sep-07 10:31N 41°29' W 071°19'0 0.0
2014-Sep-07 09:31N 41°29' W 071°19'0 0.0
2014-Sep-07 08:31N 41°29' W 071°19'0 0.0
2014-Sep-07 07:31N 41°29' W 071°19'0 0.0
2014-Sep-07 06:31N 41°29' W 071°19'0 0.0
2014-Sep-07 05:31N 41°29' W 071°19'0 0.0
2014-Sep-07 04:31N 41°29' W 071°19'0 0.0
2014-Sep-07 03:31N 41°29' W 071°19'0 0.0
2014-Sep-07 02:31N 41°29' W 071°19'0 0.0
2014-Sep-07 01:31N 41°29' W 071°19'0 0.0
2014-Sep-07 00:31N 41°29' W 071°19'0 0.0
2014-Sep-06 23:25N 41°29' W 071°19'0 0.0
2014-Sep-06 22:25N 41°29' W 071°19'0 0.0
2014-Sep-06 21:19N 41°29' W 071°19'0 0.0
2014-Sep-06 20:31N 41°29' W 071°19'0 0.0
2014-Sep-06 19:31N 41°29' W 071°19'0 0.0
2014-Sep-06 18:31N 41°29' W 071°19'0 0.0
2014-Sep-06 17:28N 41°29' W 071°19'0 0.0
2014-Sep-06 16:28N 41°29' W 071°19'0 0.0
2014-Sep-06 15:31N 41°29' W 071°19'0 0.0
2014-Sep-06 14:31N 41°29' W 071°19'0 0.0
2014-Sep-06 13:25N 41°29' W 071°19'0 0.0
2014-Sep-06 12:31N 41°29' W 071°19'0 0.0
2014-Sep-06 11:31N 41°29' W 071°19'0 0.0
2014-Sep-06 10:25N 41°29' W 071°19'0 0.0
2014-Sep-06 09:31N 41°29' W 071°19'0 0.0
2014-Sep-06 08:31N 41°29' W 071°19'0 0.0
2014-Sep-06 07:31N 41°29' W 071°19'0 0.0
2014-Sep-06 06:31N 41°29' W 071°19'0 0.0
2014-Sep-06 05:31N 41°29' W 071°19'0 0.0
2014-Sep-06 04:31N 41°29' W 071°19'0 0.0
2014-Sep-06 03:31N 41°29' W 071°19'0 0.0
2014-Sep-06 02:28N 41°29' W 071°19'0 0.0
2014-Sep-06 01:28N 41°29' W 071°19'0 0.0
2014-Sep-06 00:28N 41°29' W 071°19'0 0.0
2014-Sep-05 23:25N 41°29' W 071°19'0 0.0
2014-Sep-05 22:28N 41°29' W 071°19'0 0.0
2014-Sep-05 21:28N 41°29' W 071°19'0 0.0
2014-Sep-05 20:31N 41°29' W 071°19'0 0.0
2014-Sep-05 19:31N 41°29' W 071°19'0 0.0
2014-Sep-05 18:28N 41°29' W 071°19'0 0.0
2014-Sep-05 17:31N 41°29' W 071°19'0 0.0
2014-Sep-05 16:31N 41°29' W 071°19'0 0.0
2014-Sep-05 15:25N 41°29' W 071°19'0 0.0
2014-Sep-05 14:31N 41°29' W 071°19'0 0.0
2014-Sep-05 13:31N 41°29' W 071°19'0 0.0
2014-Sep-05 12:31N 41°29' W 071°19'0 0.0
2014-Sep-05 11:31N 41°29' W 071°19'0 0.0
2014-Sep-05 10:31N 41°29' W 071°19'0 0.0
2014-Sep-05 09:31N 41°29' W 071°19'0 0.0
2014-Sep-05 08:31N 41°29' W 071°19'0 0.0
2014-Sep-05 07:31N 41°29' W 071°19'0 0.0
2014-Sep-05 06:31N 41°29' W 071°19'0 0.0
2014-Sep-05 05:28N 41°29' W 071°19'0 0.0
2014-Sep-05 04:31N 41°29' W 071°19'0 0.0
2014-Sep-05 03:31N 41°29' W 071°19'0 0.0
2014-Sep-05 02:31N 41°29' W 071°19'0 0.0
2014-Sep-05 01:31N 41°29' W 071°19'0 0.0
2014-Sep-05 00:31N 41°29' W 071°19'0 0.0
2014-Sep-04 23:31N 41°29' W 071°19'0 0.0
2014-Sep-04 22:31N 41°29' W 071°19'0 0.0
2014-Sep-04 21:31N 41°29' W 071°19'0 0.0
2014-Sep-04 20:31N 41°29' W 071°19'0 0.0
2014-Sep-04 19:31N 41°29' W 071°19'0 0.0
2014-Sep-04 18:25N 41°29' W 071°19'0 0.0
2014-Sep-04 17:31N 41°29' W 071°19'0 0.0
2014-Sep-04 16:31N 41°29' W 071°19'0 0.0
2014-Sep-04 15:28N 41°29' W 071°19'0 0.0
2014-Sep-04 14:31N 41°29' W 071°19'0 0.0
2014-Sep-04 13:31N 41°29' W 071°19'0 0.0
2014-Sep-04 12:31N 41°29' W 071°19'0 0.0
2014-Sep-04 11:31N 41°29' W 071°19'0 0.0
2014-Sep-04 10:31N 41°29' W 071°19'0 0.0
2014-Sep-04 09:31N 41°29' W 071°19'0 0.0
2014-Sep-04 08:31N 41°29' W 071°19'0 0.0
2014-Sep-04 07:31N 41°29' W 071°19'0 0.0
2014-Sep-04 06:28N 41°29' W 071°19'0 0.0
2014-Sep-04 05:28N 41°29' W 071°19'0 0.0
2014-Sep-04 04:31N 41°29' W 071°19'0 0.0
2014-Sep-04 03:31N 41°29' W 071°19'0 0.0
2014-Sep-04 02:31N 41°29' W 071°19'0 0.0
2014-Sep-04 01:28N 41°29' W 071°19'0 0.0
2014-Sep-04 00:28N 41°29' W 071°19'0 0.0
2014-Sep-03 23:31N 41°29' W 071°19'0 0.0
2014-Sep-03 22:31N 41°29' W 071°19'0 0.0
2014-Sep-03 21:31N 41°29' W 071°19'0 0.0
2014-Sep-03 20:31N 41°29' W 071°19'0 0.0
2014-Sep-03 19:31N 41°29' W 071°19'0 0.0
2014-Sep-03 18:31N 41°29' W 071°19'0 0.0
2014-Sep-03 17:31N 41°29' W 071°19'0 0.0
2014-Sep-03 16:31N 41°29' W 071°19'0 0.0
2014-Sep-03 15:31N 41°29' W 071°19'0 0.0
2014-Sep-03 14:31N 41°29' W 071°19'0 0.0
2014-Sep-03 13:28N 41°29' W 071°19'0 0.0
2014-Sep-03 12:31N 41°29' W 071°19'0 0.0
2014-Sep-03 11:31N 41°29' W 071°19'0 0.0
2014-Sep-03 10:31N 41°29' W 071°19'0 0.0
2014-Sep-03 09:31N 41°29' W 071°19'0 0.0
2014-Sep-03 08:31N 41°29' W 071°19'0 0.0
2014-Sep-03 07:31N 41°29' W 071°19'0 0.0
2014-Sep-03 06:31N 41°29' W 071°19'0 0.0
2014-Sep-03 05:31N 41°29' W 071°19'0 0.0
2014-Sep-03 04:31N 41°29' W 071°19'0 0.0
2014-Sep-03 03:31N 41°29' W 071°19'0 0.0
2014-Sep-03 02:31N 41°29' W 071°19'0 0.0
2014-Sep-03 01:31N 41°29' W 071°19'0 0.0
2014-Sep-03 00:31N 41°29' W 071°19'0 0.0
2014-Sep-02 23:22N 41°29' W 071°19'0 0.0
2014-Sep-02 22:31N 41°29' W 071°19'0 0.0
2014-Sep-02 21:31N 41°29' W 071°19'0 0.0
2014-Sep-02 20:31N 41°29' W 071°19'0 0.0
2014-Sep-02 19:31N 41°29' W 071°19'0 0.0
2014-Sep-02 18:31N 41°29' W 071°19'0 0.0
2014-Sep-02 17:31N 41°29' W 071°19'0 0.0
2014-Sep-02 16:31N 41°29' W 071°19'0 0.0
2014-Sep-02 15:31N 41°29' W 071°19'0 0.0
2014-Sep-02 14:31N 41°29' W 071°19'0 0.0
2014-Sep-02 13:31N 41°29' W 071°19'0 0.0
2014-Sep-02 12:31N 41°29' W 071°19'0 0.0
2014-Sep-02 11:31N 41°29' W 071°19'0 0.0
2014-Sep-02 10:31N 41°29' W 071°19'0 0.0
2014-Sep-02 09:28N 41°29' W 071°19'0 0.0
2014-Sep-02 08:31N 41°29' W 071°19'0 0.0
2014-Sep-02 07:31N 41°29' W 071°19'0 0.0
2014-Sep-02 06:28N 41°29' W 071°19'0 0.0
2014-Sep-02 05:31N 41°29' W 071°19'0 0.0
2014-Sep-02 04:31N 41°29' W 071°19'0 0.0
2014-Sep-02 03:31N 41°29' W 071°19'0 0.0
2014-Sep-02 02:31N 41°29' W 071°19'0 0.0
2014-Sep-02 01:31N 41°29' W 071°19'0 0.0
2014-Sep-02 00:31N 41°29' W 071°19'0 0.0
2014-Sep-01 23:31N 41°29' W 071°19'0 0.0
2014-Sep-01 22:31N 41°29' W 071°19'0 0.0
2014-Sep-01 21:31N 41°29' W 071°19'0 0.0
2014-Sep-01 20:31N 41°29' W 071°19'0 0.0
2014-Sep-01 19:31N 41°29' W 071°19'0 0.0
2014-Sep-01 18:28N 41°29' W 071°19'  
Track history (hours):
 
Tides and Currents Weather Stations Pressure Air Temp Water Temp Dewpoint Dewpoint Depression Visibility Wind Speed Wind Dir Waves Ship Positions

Remember When

Last reported at 2014-Sep-11 18:11 UTC. Time now 2014-Sep-17 07:33 UTC.
Position N 40°43' W 074°03'.

Length 50 m; draft 2.4 m.

Type: Pleasure craft. MMSI: 319582000.

Date/timePositionNaut miles runAvg speedWind from/ knotsBaromVisibWave heightAir tempDewpointWater temp
2014-Sep-11 18:11N 40°43' W 074°03'0 0.0
2014-Sep-11 17:29N 40°43' W 074°03'0 0.0
2014-Sep-11 16:32N 40°43' W 074°03'0 0.0
2014-Sep-11 14:20N 40°43' W 074°03'0 0.0
2014-Sep-11 13:29N 40°43' W 074°03'0 0.0
2014-Sep-11 12:32N 40°43' W 074°03'0 0.0
2014-Sep-11 11:32N 40°43' W 074°03'0 0.0
2014-Sep-11 10:32N 40°43' W 074°03'0 0.0
2014-Sep-11 08:14N 40°43' W 074°03'0 0.0
2014-Sep-11 07:32N 40°43' W 074°03'0 0.0
2014-Sep-11 06:32N 40°43' W 074°03'0 0.0
2014-Sep-11 05:23N 40°43' W 074°03'0 0.0
2014-Sep-11 04:29N 40°43' W 074°03'0 0.0
2014-Sep-11 03:29N 40°43' W 074°03'0 0.0
2014-Sep-11 02:32N 40°43' W 074°03'0 0.0
2014-Sep-11 01:26N 40°43' W 074°03'0 0.0
2014-Sep-11 00:23N 40°43' W 074°03'0 0.0
2014-Sep-10 23:29N 40°43' W 074°03'0 0.0
2014-Sep-10 22:23N 40°43' W 074°03'0 0.0
2014-Sep-10 21:32N 40°43' W 074°03'0 0.0
2014-Sep-10 20:26N 40°43' W 074°03'0 0.0
2014-Sep-10 19:32N 40°43' W 074°03'0 0.0
2014-Sep-10 18:26N 40°43' W 074°03'0 0.0
2014-Sep-10 17:32N 40°43' W 074°03'0 0.0
2014-Sep-10 16:26N 40°43' W 074°03'0 0.0
2014-Sep-10 15:29N 40°43' W 074°03'0 0.0
2014-Sep-10 14:32N 40°43' W 074°03'0 0.0
2014-Sep-10 13:32N 40°43' W 074°03'0 0.0
2014-Sep-10 12:29N 40°43' W 074°03'0 0.0
2014-Sep-10 11:11N 40°43' W 074°03'0 0.0
2014-Sep-10 10:20N 40°43' W 074°03'0 0.0
2014-Sep-10 09:29N 40°43' W 074°03'0 0.0
2014-Sep-10 08:23N 40°43' W 074°03'0 0.0
2014-Sep-10 07:29N 40°43' W 074°03'0 0.0
2014-Sep-10 05:32N 40°43' W 074°03'0 0.0
2014-Sep-09 23:26N 40°43' W 074°03'0 0.0
2014-Sep-09 22:32N 40°43' W 074°03'0 0.0
2014-Sep-09 21:26N 40°43' W 074°03'0 0.0
2014-Sep-09 20:26N 40°43' W 074°03'0 0.0
2014-Sep-09 19:32N 40°43' W 074°03'0 0.0
2014-Sep-09 18:26N 40°43' W 074°03'0 0.0
2014-Sep-09 17:26N 40°43' W 074°03'0 0.0
2014-Sep-09 16:26N 40°43' W 074°03'0 0.0
2014-Sep-09 15:32N 40°43' W 074°03'0 0.0
2014-Sep-09 14:32N 40°43' W 074°03'0 0.0
2014-Sep-09 13:32N 40°43' W 074°03'0 0.0
2014-Sep-09 12:26N 40°43' W 074°03'0 0.0
2014-Sep-09 11:14N 40°43' W 074°03'0 0.0
2014-Sep-09 10:20N 40°43' W 074°03'0 0.0
2014-Sep-09 09:32N 40°43' W 074°03'0 0.0
2014-Sep-09 07:08N 40°43' W 074°03'0 0.0
2014-Sep-09 04:32N 40°43' W 074°03'0 0.0
2014-Sep-08 23:14N 40°43' W 074°03'0 0.0
2014-Sep-08 22:08N 40°43' W 074°03'0 0.0
2014-Sep-08 18:32N 40°43' W 074°03'0 0.0
2014-Sep-08 16:32N 40°43' W 074°03'0 0.0
2014-Sep-08 15:17N 40°43' W 074°03'0 0.0
2014-Sep-08 14:32N 40°43' W 074°03'0 0.0
2014-Sep-08 13:32N 40°43' W 074°03'3 3.4
2014-Sep-08 12:33N 40°43' W 073°58'8 7.7
2014-Sep-08 11:33N 40°48' W 073°50'9 8.4
2014-Sep-08 10:29N 40°54' W 073°41'10 9.9
2014-Sep-08 09:31N 40°58' W 073°30'9 9.6
2014-Sep-08 08:33N 41°00' W 073°18'10 9.5
2014-Sep-08 07:33N 41°02' W 073°05'9 9.2
2014-Sep-08 06:33N 41°04' W 072°54'9 9.2
2014-Sep-08 05:33N 41°06' W 072°42'9 8.7
2014-Sep-08 04:33N 41°09' W 072°31'9 8.8
2014-Sep-08 03:33N 41°11' W 072°19'9 9.0
2014-Sep-08 02:33N 41°13' W 072°08'1110.5
2014-Sep-08 01:33N 41°16' W 071°54'1111.0
2014-Sep-08 00:33N 41°18' W 071°40'1010.2
2014-Sep-07 23:33N 41°22' W 071°27'9 9.1
2014-Sep-07 22:34N 41°29' W 071°20'0 0.3
2014-Sep-07 21:29N 41°29' W 071°19'0 0.0
2014-Sep-07 20:28N 41°29' W 071°19'0 0.0
2014-Sep-07 19:31N 41°29' W 071°19'0 0.0
2014-Sep-07 18:31N 41°29' W 071°19'0 0.0
2014-Sep-07 17:31N 41°29' W 071°19'0 0.0
2014-Sep-07 16:31N 41°29' W 071°19'0 0.0
2014-Sep-07 15:31N 41°29' W 071°19'0 0.0
2014-Sep-07 14:31N 41°29' W 071°19'0 0.0
2014-Sep-07 13:31N 41°29' W 071°19'0 0.0
2014-Sep-07 12:31N 41°29' W 071°19'0 0.0
2014-Sep-07 11:31N 41°29' W 071°19'0 0.0
2014-Sep-07 10:31N 41°29' W 071°19'0 0.0
2014-Sep-07 09:31N 41°29' W 071°19'0 0.0
2014-Sep-07 08:31N 41°29' W 071°19'0 0.0
2014-Sep-07 07:31N 41°29' W 071°19'0 0.0
2014-Sep-07 06:31N 41°29' W 071°19'0 0.0
2014-Sep-07 05:31N 41°29' W 071°19'0 0.0
2014-Sep-07 04:31N 41°29' W 071°19'0 0.0
2014-Sep-07 03:31N 41°29' W 071°19'0 0.0
2014-Sep-07 02:31N 41°29' W 071°19'0 0.0
2014-Sep-07 01:31N 41°29' W 071°19'0 0.0
2014-Sep-07 00:31N 41°29' W 071°19'0 0.0
2014-Sep-06 23:25N 41°29' W 071°19'0 0.0
2014-Sep-06 22:25N 41°29' W 071°19'0 0.0
2014-Sep-06 21:19N 41°29' W 071°19'0 0.0
2014-Sep-06 20:31N 41°29' W 071°19'0 0.0
2014-Sep-06 19:31N 41°29' W 071°19'0 0.0
2014-Sep-06 18:31N 41°29' W 071°19'0 0.0
2014-Sep-06 17:28N 41°29' W 071°19'0 0.0
2014-Sep-06 16:28N 41°29' W 071°19'0 0.0
2014-Sep-06 15:31N 41°29' W 071°19'0 0.0
2014-Sep-06 14:31N 41°29' W 071°19'0 0.0
2014-Sep-06 13:25N 41°29' W 071°19'0 0.0
2014-Sep-06 12:31N 41°29' W 071°19'0 0.0
2014-Sep-06 11:31N 41°29' W 071°19'0 0.0
2014-Sep-06 10:25N 41°29' W 071°19'0 0.0
2014-Sep-06 09:31N 41°29' W 071°19'0 0.0
2014-Sep-06 08:31N 41°29' W 071°19'0 0.0
2014-Sep-06 07:31N 41°29' W 071°19'0 0.0
2014-Sep-06 06:31N 41°29' W 071°19'0 0.0
2014-Sep-06 05:31N 41°29' W 071°19'0 0.0
2014-Sep-06 04:31N 41°29' W 071°19'0 0.0
2014-Sep-06 03:31N 41°29' W 071°19'0 0.0
2014-Sep-06 02:28N 41°29' W 071°19'0 0.0
2014-Sep-06 01:28N 41°29' W 071°19'0 0.0
2014-Sep-06 00:28N 41°29' W 071°19'0 0.0
2014-Sep-05 23:25N 41°29' W 071°19'0 0.0
2014-Sep-05 22:28N 41°29' W 071°19'0 0.0
2014-Sep-05 21:28N 41°29' W 071°19'0 0.0
2014-Sep-05 20:31N 41°29' W 071°19'0 0.0
2014-Sep-05 19:31N 41°29' W 071°19'0 0.0
2014-Sep-05 18:28N 41°29' W 071°19'0 0.0
2014-Sep-05 17:31N 41°29' W 071°19'0 0.0
2014-Sep-05 16:31N 41°29' W 071°19'0 0.0
2014-Sep-05 15:25N 41°29' W 071°19'0 0.0
2014-Sep-05 14:31N 41°29' W 071°19'0 0.0
2014-Sep-05 13:31N 41°29' W 071°19'0 0.0
2014-Sep-05 12:31N 41°29' W 071°19'0 0.0
2014-Sep-05 11:31N 41°29' W 071°19'0 0.0
2014-Sep-05 10:31N 41°29' W 071°19'0 0.0
2014-Sep-05 09:31N 41°29' W 071°19'0 0.0
2014-Sep-05 08:31N 41°29' W 071°19'0 0.0
2014-Sep-05 07:31N 41°29' W 071°19'0 0.0
2014-Sep-05 06:31N 41°29' W 071°19'0 0.0
2014-Sep-05 05:28N 41°29' W 071°19'0 0.0
2014-Sep-05 04:31N 41°29' W 071°19'0 0.0
2014-Sep-05 03:31N 41°29' W 071°19'0 0.0
2014-Sep-05 02:31N 41°29' W 071°19'0 0.0
2014-Sep-05 01:31N 41°29' W 071°19'0 0.0
2014-Sep-05 00:31N 41°29' W 071°19'0 0.0
2014-Sep-04 23:31N 41°29' W 071°19'0 0.0
2014-Sep-04 22:31N 41°29' W 071°19'0 0.0
2014-Sep-04 21:31N 41°29' W 071°19'0 0.0
2014-Sep-04 20:31N 41°29' W 071°19'0 0.0
2014-Sep-04 19:31N 41°29' W 071°19'0 0.0
2014-Sep-04 18:25N 41°29' W 071°19'0 0.0
2014-Sep-04 17:31N 41°29' W 071°19'0 0.0
2014-Sep-04 16:31N 41°29' W 071°19'0 0.0
2014-Sep-04 15:28N 41°29' W 071°19'0 0.0
2014-Sep-04 14:31N 41°29' W 071°19'0 0.0
2014-Sep-04 13:31N 41°29' W 071°19'0 0.0
2014-Sep-04 12:31N 41°29' W 071°19'0 0.0
2014-Sep-04 11:31N 41°29' W 071°19'0 0.0
2014-Sep-04 10:31N 41°29' W 071°19'0 0.0
2014-Sep-04 09:31N 41°29' W 071°19'0 0.0
2014-Sep-04 08:31N 41°29' W 071°19'0 0.0
2014-Sep-04 07:31N 41°29' W 071°19'0 0.0
2014-Sep-04 06:28N 41°29' W 071°19'0 0.0
2014-Sep-04 05:28N 41°29' W 071°19'0 0.0
2014-Sep-04 04:31N 41°29' W 071°19'0 0.0
2014-Sep-04 03:31N 41°29' W 071°19'0 0.0
2014-Sep-04 02:31N 41°29' W 071°19'0 0.0
2014-Sep-04 01:28N 41°29' W 071°19'0 0.0
2014-Sep-04 00:28N 41°29' W 071°19'0 0.0
2014-Sep-03 23:31N 41°29' W 071°19'0 0.0
2014-Sep-03 22:31N 41°29' W 071°19'0 0.0
2014-Sep-03 21:31N 41°29' W 071°19'0 0.0
2014-Sep-03 20:31N 41°29' W 071°19'0 0.0
2014-Sep-03 19:31N 41°29' W 071°19'0 0.0
2014-Sep-03 18:31N 41°29' W 071°19'0 0.0
2014-Sep-03 17:31N 41°29' W 071°19'0 0.0
2014-Sep-03 16:31N 41°29' W 071°19'0 0.0
2014-Sep-03 15:31N 41°29' W 071°19'0 0.0
2014-Sep-03 14:31N 41°29' W 071°19'0 0.0
2014-Sep-03 13:28N 41°29' W 071°19'0 0.0
2014-Sep-03 12:31N 41°29' W 071°19'0 0.0
2014-Sep-03 11:31N 41°29' W 071°19'0 0.0
2014-Sep-03 10:31N 41°29' W 071°19'0 0.0
2014-Sep-03 09:31N 41°29' W 071°19'0 0.0
2014-Sep-03 08:31N 41°29' W 071°19'0 0.0
2014-Sep-03 07:31N 41°29' W 071°19'0 0.0
2014-Sep-03 06:31N 41°29' W 071°19'0 0.0
2014-Sep-03 05:31N 41°29' W 071°19'0 0.0
2014-Sep-03 04:31N 41°29' W 071°19'0 0.0
2014-Sep-03 03:31N 41°29' W 071°19'0 0.0
2014-Sep-03 02:31N 41°29' W 071°19'0 0.0
2014-Sep-03 01:31N 41°29' W 071°19'0 0.0
2014-Sep-03 00:31N 41°29' W 071°19'0 0.0
2014-Sep-02 23:22N 41°29' W 071°19'0 0.0
2014-Sep-02 22:31N 41°29' W 071°19'0 0.0
2014-Sep-02 21:31N 41°29' W 071°19'0 0.0
2014-Sep-02 20:31N 41°29' W 071°19'0 0.0
2014-Sep-02 19:31N 41°29' W 071°19'0 0.0
2014-Sep-02 18:31N 41°29' W 071°19'0 0.0
2014-Sep-02 17:31N 41°29' W 071°19'0 0.0
2014-Sep-02 16:31N 41°29' W 071°19'0 0.0
2014-Sep-02 15:31N 41°29' W 071°19'0 0.0
2014-Sep-02 14:31N 41°29' W 071°19'0 0.0
2014-Sep-02 13:31N 41°29' W 071°19'0 0.0
2014-Sep-02 12:31N 41°29' W 071°19'0 0.0
2014-Sep-02 11:31N 41°29' W 071°19'0 0.0
2014-Sep-02 10:31N 41°29' W 071°19'0 0.0
2014-Sep-02 09:28N 41°29' W 071°19'0 0.0
2014-Sep-02 08:31N 41°29' W 071°19'0 0.0
2014-Sep-02 07:31N 41°29' W 071°19'0 0.0
2014-Sep-02 06:28N 41°29' W 071°19'0 0.0
2014-Sep-02 05:31N 41°29' W 071°19'0 0.0
2014-Sep-02 04:31N 41°29' W 071°19'0 0.0
2014-Sep-02 03:31N 41°29' W 071°19'0 0.0
2014-Sep-02 02:31N 41°29' W 071°19'0 0.0
2014-Sep-02 01:31N 41°29' W 071°19'0 0.0
2014-Sep-02 00:31N 41°29' W 071°19'0 0.0
2014-Sep-01 23:31N 41°29' W 071°19'0 0.0
2014-Sep-01 22:31N 41°29' W 071°19'0 0.0
2014-Sep-01 21:31N 41°29' W 071°19'0 0.0
2014-Sep-01 20:31N 41°29' W 071°19'0 0.0
2014-Sep-01 19:31N 41°29' W 071°19'0 0.0
2014-Sep-01 18:28N 41°29' W 071°19'  

Dump ship's entire track history